createdAt,value
2019-05-10T00:01:52.152Z,99.90
2019-05-10T00:04:38.660Z,99.90
2019-05-10T00:07:25.467Z,99.90
2019-05-10T00:09:53.199Z,99.90
2019-05-10T00:12:23.271Z,99.90
2019-05-10T00:14:53.655Z,99.90
2019-05-10T00:17:41.411Z,99.90
2019-05-10T00:20:09.859Z,99.90
2019-05-10T00:22:38.325Z,99.90
2019-05-10T00:25:26.116Z,99.90
2019-05-10T00:27:54.528Z,99.90
2019-05-10T00:30:22.952Z,99.90
2019-05-10T00:32:51.372Z,99.90
2019-05-10T00:35:19.804Z,99.90
2019-05-10T00:37:48.236Z,99.90
2019-05-10T00:40:16.668Z,99.90
2019-05-10T00:42:45.096Z,99.90
2019-05-10T00:45:13.668Z,99.90
2019-05-10T00:47:42.080Z,99.90
2019-05-10T00:50:10.649Z,99.90
2019-05-10T00:52:39.062Z,99.90
2019-05-10T00:55:26.838Z,99.90
2019-05-10T00:57:55.256Z,99.90
2019-05-10T01:00:23.757Z,99.90
2019-05-10T01:02:52.197Z,99.90
2019-05-10T01:05:20.609Z,99.90
2019-05-10T01:07:49.033Z,99.90
2019-05-10T01:10:17.460Z,99.90
2019-05-10T01:12:45.885Z,99.90
2019-05-10T01:15:14.379Z,99.90
2019-05-10T01:18:02.174Z,99.90
2019-05-10T01:20:30.603Z,99.90
2019-05-10T01:25:47.877Z,99.90
2019-05-10T01:28:16.345Z,99.90
2019-05-10T01:30:44.921Z,99.90
2019-05-10T01:33:13.361Z,99.90
2019-05-10T01:35:41.778Z,99.90
2019-05-10T01:38:10.194Z,99.90
2019-05-10T01:40:38.626Z,99.90
2019-05-10T01:43:07.048Z,99.90
2019-05-10T01:45:35.482Z,99.90
2019-05-10T01:48:04.179Z,99.90
2019-05-10T01:50:32.690Z,99.90
2019-05-10T01:53:01.115Z,99.90
2019-05-10T01:55:29.526Z,99.90
2019-05-10T01:57:57.943Z,99.90
2019-05-10T02:00:26.379Z,99.90
2019-05-10T02:02:54.806Z,99.90
2019-05-10T02:05:23.224Z,99.90
2019-05-10T02:07:51.656Z,99.90
2019-05-10T02:10:20.503Z,99.90
2019-05-10T02:12:48.930Z,99.90
2019-05-10T02:15:17.339Z,99.90
2019-05-10T02:18:05.118Z,99.90
2019-05-10T02:20:33.523Z,99.90
2019-05-10T02:23:01.928Z,99.90
2019-05-10T02:25:30.356Z,99.90
2019-05-10T02:27:58.859Z,99.90
2019-05-10T02:33:22.296Z,99.90
2019-05-10T02:35:50.712Z,99.90
2019-05-10T02:38:19.148Z,99.90
2019-05-10T02:40:47.568Z,99.90
2019-05-10T02:43:16.001Z,99.90
2019-05-10T02:45:44.441Z,99.90
2019-05-10T02:48:12.888Z,99.90
2019-05-10T02:50:41.300Z,99.90
2019-05-10T02:53:10.617Z,99.90
2019-05-10T02:55:39.588Z,99.90
2019-05-10T02:58:08.673Z,99.90
2019-05-10T03:00:40.181Z,99.90
2019-05-10T03:03:09.915Z,99.90
2019-05-10T03:05:40.161Z,99.90
2019-05-10T03:08:08.572Z,99.90
2019-05-10T03:10:38.817Z,99.90
2019-05-10T03:13:10.348Z,99.90
2019-05-10T03:15:38.797Z,99.90
2019-05-10T03:18:28.117Z,99.90
2019-05-10T03:20:59.610Z,99.90
2019-05-10T03:23:29.348Z,99.90
2019-05-10T03:25:59.015Z,99.90
2019-05-10T03:28:46.781Z,99.90
2019-05-10T03:31:15.285Z,99.90
2019-05-10T03:33:43.778Z,99.90
2019-05-10T03:36:12.327Z,99.90
2019-05-10T03:38:41.030Z,99.90
2019-05-10T03:41:09.451Z,99.90
2019-05-10T03:43:37.912Z,99.90
2019-05-10T03:46:06.383Z,99.90
2019-05-10T03:48:34.816Z,99.90
2019-05-10T03:51:03.230Z,99.90
2019-05-10T03:53:51.028Z,99.90
2019-05-10T03:59:14.440Z,99.90
2019-05-10T04:01:42.846Z,99.90
2019-05-10T04:04:30.623Z,99.90
2019-05-10T04:07:11.658Z,99.90
2019-05-10T04:09:40.092Z,99.90
2019-05-10T04:12:08.504Z,99.90
2019-05-10T04:14:36.924Z,99.90
2019-05-10T04:17:05.359Z,99.90
2019-05-10T04:19:33.792Z,99.90
2019-05-10T04:22:02.341Z,99.90
2019-05-10T04:24:30.811Z,99.90
2019-05-10T04:26:59.238Z,99.90
2019-05-10T04:29:27.648Z,99.90
2019-05-10T04:31:56.089Z,99.90
2019-05-10T04:34:24.507Z,99.90
2019-05-10T04:36:52.917Z,99.90
2019-05-10T04:39:21.348Z,99.90
2019-05-10T04:41:49.778Z,99.90
2019-05-10T04:47:13.315Z,99.90
2019-05-10T04:49:41.732Z,99.90
2019-05-10T04:52:10.152Z,99.90
2019-05-10T04:54:38.576Z,99.90
2019-05-10T04:57:07.009Z,99.90
2019-05-10T04:59:35.424Z,99.90
2019-05-10T05:02:03.886Z,99.90
2019-05-10T05:04:32.320Z,99.90
2019-05-10T05:07:00.742Z,99.90
2019-05-10T05:09:29.172Z,99.90
2019-05-10T05:11:57.618Z,99.90
2019-05-10T05:14:26.045Z,99.90
2019-05-10T05:16:54.472Z,99.90
2019-05-10T05:19:22.892Z,99.90
2019-05-10T05:21:51.328Z,99.90
2019-05-10T05:24:22.935Z,99.90
2019-05-10T05:26:49.914Z,99.90
2019-05-10T05:29:18.336Z,99.90
2019-05-10T05:32:06.109Z,99.90
2019-05-10T05:34:34.519Z,99.90
2019-05-10T05:37:03.026Z,99.90
2019-05-10T05:39:31.441Z,99.90
2019-05-10T05:41:59.865Z,99.90
2019-05-10T05:44:28.289Z,99.90
2019-05-10T05:47:16.071Z,99.90
2019-05-10T05:49:44.497Z,99.90
2019-05-10T05:52:32.253Z,99.90
2019-05-10T05:55:00.689Z,99.90
2019-05-10T05:57:29.640Z,99.90
2019-05-10T06:00:04.156Z,99.90
2019-05-10T06:02:47.903Z,99.90
2019-05-10T06:05:32.388Z,99.90
2019-05-10T06:07:46.473Z,99.90
2019-05-10T06:10:17.502Z,99.90
2019-05-10T06:12:50.711Z,99.90
2019-05-10T06:15:15.678Z,99.90
2019-05-10T06:17:44.128Z,99.90
2019-05-10T06:20:13.365Z,99.90
2019-05-10T06:22:43.984Z,99.90
2019-05-10T06:25:12.596Z,99.90
2019-05-10T06:27:43.180Z,99.90
2019-05-10T06:30:11.782Z,99.90
2019-05-10T06:32:40.215Z,99.90
2019-05-10T06:35:14.128Z,99.90
2019-05-10T06:37:38.846Z,99.90
2019-05-10T06:40:35.612Z,99.90
2019-05-10T06:43:13.285Z,99.90
2019-05-10T06:45:39.506Z,99.90
2019-05-10T06:48:07.930Z,99.90
2019-05-10T06:50:36.345Z,99.90
2019-05-10T06:53:08.000Z,99.90
2019-05-10T06:55:34.903Z,99.90
2019-05-10T06:58:03.326Z,99.90
2019-05-10T07:00:31.738Z,99.90
2019-05-10T07:03:00.174Z,99.90
2019-05-10T07:05:28.603Z,99.90
2019-05-10T07:08:00.628Z,99.90
2019-05-10T07:10:27.183Z,99.90
2019-05-10T07:12:56.971Z,99.90
2019-05-10T07:15:25.752Z,99.90
2019-05-10T07:17:54.175Z,99.90
2019-05-10T07:20:23.616Z,99.90
2019-05-10T07:22:52.761Z,99.90
2019-05-10T07:25:21.176Z,99.90
2019-05-10T07:27:50.407Z,99.90
2019-05-10T07:30:36.315Z,99.90
2019-05-10T07:33:04.868Z,99.90
2019-05-10T07:35:36.993Z,99.90
2019-05-10T07:38:03.708Z,99.90
2019-05-10T07:40:32.140Z,99.90
2019-05-10T07:43:00.576Z,99.90
2019-05-10T07:45:28.998Z,99.90
2019-05-10T07:47:57.420Z,99.90
2019-05-10T07:50:25.856Z,99.90
2019-05-10T07:52:54.490Z,99.90
2019-05-10T07:55:27.679Z,99.90
2019-05-10T07:57:53.070Z,99.90
2019-05-10T08:00:25.203Z,99.90
2019-05-10T08:03:00.816Z,99.90
2019-05-10T08:05:21.912Z,99.90
2019-05-10T08:07:50.348Z,99.90
2019-05-10T08:10:21.509Z,99.90
2019-05-10T08:12:49.270Z,99.90
2019-05-10T08:15:19.485Z,99.90
2019-05-10T08:17:50.512Z,99.30
2019-05-10T08:20:33.176Z,99.20
2019-05-10T08:25:43.909Z,98.40
2019-05-10T08:28:32.617Z,97.70
2019-05-10T08:30:58.996Z,97.50
2019-05-10T08:33:27.608Z,97.10
2019-05-10T08:36:00.626Z,96.80
2019-05-10T08:38:26.161Z,97.30
2019-05-10T08:40:54.595Z,97.10
2019-05-10T08:43:43.009Z,97.20
2019-05-10T08:46:12.149Z,97.60
2019-05-10T08:48:46.514Z,97.80
2019-05-10T08:51:12.580Z,97.90
2019-05-10T08:53:42.161Z,98.00
2019-05-10T08:56:13.676Z,97.90
2019-05-10T08:58:42.196Z,97.60
2019-05-10T09:01:23.909Z,97.00
2019-05-10T09:03:41.959Z,96.50
2019-05-10T09:06:15.763Z,95.40
2019-05-10T09:08:42.978Z,94.60
2019-05-10T09:11:10.835Z,94.50
2019-05-10T09:13:42.535Z,94.20
2019-05-10T09:16:09.412Z,93.40
2019-05-10T09:18:38.179Z,93.40
2019-05-10T09:21:08.923Z,93.20
2019-05-10T09:23:38.120Z,91.80
2019-05-10T09:26:10.596Z,90.60
2019-05-10T09:28:36.745Z,90.90
2019-05-10T09:31:17.369Z,90.90
2019-05-10T09:33:35.448Z,90.80
2019-05-10T09:36:04.212Z,90.60
2019-05-10T09:38:34.934Z,90.70
2019-05-10T09:41:02.777Z,91.10
2019-05-10T09:43:31.911Z,90.20
2019-05-10T09:46:02.699Z,89.40
2019-05-10T09:48:33.122Z,89.90
2019-05-10T09:51:04.041Z,90.50
2019-05-10T09:53:31.156Z,90.50
2019-05-10T09:56:02.963Z,90.60
2019-05-10T09:58:29.730Z,90.50
2019-05-10T10:01:13.440Z,90.80
2019-05-10T10:03:30.102Z,91.10
2019-05-10T10:06:05.159Z,91.00
2019-05-10T10:08:28.581Z,90.80
2019-05-10T10:11:01.108Z,90.60
2019-05-10T10:13:39.608Z,90.20
2019-05-10T10:16:16.660Z,90.40
2019-05-10T10:18:57.437Z,90.00
2019-05-10T10:21:35.062Z,87.30
2019-05-10T10:23:57.406Z,86.10
2019-05-10T10:26:26.835Z,84.70
2019-05-10T10:28:57.795Z,84.40
2019-05-10T10:31:32.415Z,84.30
2019-05-10T10:34:17.251Z,83.70
2019-05-10T10:36:47.118Z,82.70
2019-05-10T10:39:17.064Z,82.70
2019-05-10T10:41:45.505Z,82.20
2019-05-10T10:44:13.931Z,82.20
2019-05-10T10:46:42.359Z,82.10
2019-05-10T10:49:14.049Z,83.30
2019-05-10T10:51:41.218Z,84.90
2019-05-10T10:54:09.651Z,84.00
2019-05-10T10:56:38.151Z,84.50
2019-05-10T10:59:07.546Z,84.80
2019-05-10T11:01:49.208Z,83.60
2019-05-10T11:04:08.302Z,82.70
2019-05-10T11:06:36.391Z,82.00
2019-05-10T11:09:07.415Z,81.80
2019-05-10T11:11:43.887Z,80.00
2019-05-10T11:14:07.458Z,76.50
2019-05-10T11:16:36.155Z,77.70
2019-05-10T11:19:13.357Z,77.30
2019-05-10T11:21:34.808Z,76.60
2019-05-10T11:24:03.235Z,75.70
2019-05-10T11:26:32.871Z,75.20
2019-05-10T11:29:01.812Z,74.40
2019-05-10T11:31:31.192Z,74.30
2019-05-10T11:34:01.611Z,74.90
2019-05-10T11:36:31.229Z,75.50
2019-05-10T11:39:01.649Z,75.60
2019-05-10T11:41:31.476Z,75.60
2019-05-10T11:44:05.489Z,75.70
2019-05-10T11:46:31.084Z,75.20
2019-05-10T11:49:01.569Z,75.70
2019-05-10T11:51:31.508Z,75.50
2019-05-10T11:53:59.912Z,76.10
2019-05-10T11:56:28.379Z,76.20
2019-05-10T11:58:56.789Z,75.40
2019-05-10T12:01:25.225Z,75.30
2019-05-10T12:03:53.635Z,76.30
2019-05-10T12:06:22.129Z,75.10
2019-05-10T12:09:12.500Z,73.60
2019-05-10T12:14:13.825Z,71.50
2019-05-10T12:16:42.073Z,71.70
2019-05-10T12:19:19.953Z,69.60
2019-05-10T12:26:49.420Z,72.60
2019-05-10T12:35:46.857Z,63.90
